createdAt,value
2018-11-28T00:00:10.675Z,10.67
2018-11-28T00:02:39.152Z,9.37
2018-11-28T00:05:10.895Z,9.47
2018-11-28T00:07:39.349Z,11.23
2018-11-28T00:10:12.780Z,10.30
2018-11-28T00:12:41.381Z,10.83
2018-11-28T00:15:12.000Z,10.93
2018-11-28T00:17:40.476Z,11.33
2018-11-28T00:20:13.239Z,10.03
2018-11-28T00:22:41.928Z,10.10
2018-11-28T00:25:11.281Z,11.23
2018-11-28T00:27:39.714Z,10.47
2018-11-28T00:30:11.150Z,8.37
2018-11-28T00:32:39.806Z,9.70
2018-11-28T00:35:10.627Z,10.87
2018-11-28T00:37:39.112Z,10.03
2018-11-28T00:40:09.355Z,8.93
2018-11-28T00:42:38.310Z,11.47
2018-11-28T00:45:10.552Z,10.30
2018-11-28T00:47:39.193Z,10.40
2018-11-28T00:50:12.525Z,11.13
2018-11-28T00:52:40.818Z,9.50
2018-11-28T00:55:12.168Z,9.43
2018-11-28T00:57:40.608Z,10.77
2018-11-28T01:00:11.363Z,10.57
2018-11-28T01:02:39.706Z,10.83
2018-11-28T01:05:09.567Z,13.13
2018-11-28T01:07:38.020Z,11.63
2018-11-28T01:10:09.702Z,12.50
2018-11-28T01:12:38.067Z,10.43
2018-11-28T01:15:08.364Z,12.23
2018-11-28T01:17:36.746Z,11.50
2018-11-28T01:20:06.808Z,10.87
2018-11-28T01:22:35.253Z,12.03
2018-11-28T01:25:03.695Z,11.53
2018-11-28T01:27:32.366Z,10.93
2018-11-28T01:30:00.727Z,11.43
2018-11-28T01:32:29.139Z,9.33
2018-11-28T01:34:57.453Z,11.07
2018-11-28T01:37:25.833Z,11.73
2018-11-28T01:39:54.254Z,11.80
2018-11-28T01:42:22.598Z,8.80
2018-11-28T01:44:50.895Z,10.10
2018-11-28T01:47:19.367Z,11.20
2018-11-28T01:49:47.900Z,10.90
2018-11-28T01:52:16.894Z,10.07
2018-11-28T01:54:45.276Z,10.10
2018-11-28T01:57:13.694Z,11.10
2018-11-28T01:59:42.009Z,11.17
2018-11-28T02:02:10.722Z,9.80
2018-11-28T02:04:39.101Z,10.53
2018-11-28T02:07:07.554Z,11.20
2018-11-28T02:09:35.957Z,10.13
2018-11-28T02:12:04.624Z,10.40
2018-11-28T02:14:32.979Z,10.20
2018-11-28T02:17:01.337Z,8.50
2018-11-28T02:19:29.723Z,10.07
2018-11-28T02:21:58.073Z,10.50
2018-11-28T02:24:26.413Z,10.10
2018-11-28T02:26:54.812Z,10.20
2018-11-28T02:29:24.329Z,10.17
2018-11-28T02:31:51.612Z,10.20
2018-11-28T02:34:19.950Z,9.03
2018-11-28T02:36:48.304Z,10.47
2018-11-28T02:39:16.641Z,11.47
2018-11-28T02:41:45.003Z,10.87
2018-11-28T02:44:13.350Z,10.60
2018-11-28T02:46:41.712Z,10.63
2018-11-28T02:49:10.053Z,10.03
2018-11-28T02:51:38.403Z,11.37
2018-11-28T02:54:07.182Z,11.53
2018-11-28T02:56:35.738Z,10.83
2018-11-28T02:59:04.201Z,11.00
2018-11-28T03:01:32.564Z,11.53
2018-11-28T03:04:01.032Z,10.23
2018-11-28T03:06:29.364Z,11.97
2018-11-28T03:08:57.705Z,9.40
2018-11-28T03:11:26.036Z,10.77
2018-11-28T03:13:54.391Z,10.10
2018-11-28T03:16:22.759Z,10.73
2018-11-28T03:18:51.174Z,10.10
2018-11-28T03:21:19.446Z,9.70
2018-11-28T03:23:47.825Z,9.63
2018-11-28T03:26:16.273Z,9.03
2018-11-28T03:28:44.719Z,7.97
2018-11-28T03:31:13.065Z,9.77
2018-11-28T03:33:41.434Z,8.97
2018-11-28T03:36:09.769Z,8.90
2018-11-28T03:38:38.133Z,9.03
2018-11-28T03:41:06.479Z,9.47
2018-11-28T03:43:34.920Z,10.67
2018-11-28T03:46:04.405Z,10.73
2018-11-28T03:48:32.826Z,9.33
2018-11-28T03:51:01.169Z,9.50
2018-11-28T03:53:29.574Z,7.97
2018-11-28T03:55:57.920Z,9.53
2018-11-28T03:58:26.281Z,8.20
2018-11-28T04:00:54.755Z,10.17
2018-11-28T04:03:23.662Z,9.10
2018-11-28T04:05:52.076Z,8.57
2018-11-28T04:08:20.460Z,8.47
2018-11-28T04:10:48.920Z,9.10
2018-11-28T04:13:17.245Z,9.20
2018-11-28T04:15:45.593Z,8.97
2018-11-28T04:18:14.985Z,7.63
2018-11-28T04:20:43.325Z,8.60
2018-11-28T04:23:11.833Z,8.43
2018-11-28T04:25:40.179Z,7.43
2018-11-28T04:28:08.567Z,8.57
2018-11-28T04:30:36.862Z,8.20
2018-11-28T04:33:05.379Z,8.50
2018-11-28T04:35:33.730Z,8.47
2018-11-28T04:38:03.276Z,7.83
2018-11-28T04:40:31.638Z,8.67
2018-11-28T04:42:59.956Z,8.17
2018-11-28T04:45:28.333Z,8.27
2018-11-28T04:47:56.728Z,9.10
2018-11-28T04:50:25.031Z,8.73
2018-11-28T04:52:54.648Z,7.97
2018-11-28T04:55:22.996Z,7.43
2018-11-28T04:57:51.289Z,8.13
2018-11-28T05:00:24.670Z,8.20
2018-11-28T05:02:54.190Z,7.60
2018-11-28T05:05:22.506Z,8.13
2018-11-28T05:07:52.912Z,7.70
2018-11-28T05:10:24.041Z,6.97
2018-11-28T05:12:53.075Z,8.47
2018-11-28T05:15:22.356Z,8.07
2018-11-28T05:17:51.481Z,8.40
2018-11-28T05:20:20.998Z,7.80
2018-11-28T05:22:49.658Z,7.13
2018-11-28T05:25:21.279Z,7.13
2018-11-28T05:27:50.660Z,8.07
2018-11-28T05:30:20.762Z,7.63
2018-11-28T05:32:49.239Z,7.50
2018-11-28T05:35:18.744Z,8.17
2018-11-28T05:37:47.225Z,8.07
2018-11-28T05:40:20.455Z,8.27
2018-11-28T05:42:48.841Z,8.00
2018-11-28T05:45:17.335Z,9.07
2018-11-28T05:47:45.990Z,8.90
2018-11-28T05:50:18.794Z,8.33
2018-11-28T05:52:47.151Z,8.20
2018-11-28T05:55:16.309Z,8.33
2018-11-28T05:57:44.868Z,8.40
2018-11-28T06:00:19.577Z,9.17
2018-11-28T06:02:55.617Z,9.07
2018-11-28T06:05:24.063Z,8.90
2018-11-28T06:07:52.435Z,9.90
2018-11-28T06:10:21.054Z,10.00
2018-11-28T06:12:49.623Z,9.87
2018-11-28T06:15:17.969Z,10.70
2018-11-28T06:17:46.488Z,9.70
2018-11-28T06:20:15.431Z,10.80
2018-11-28T06:22:43.814Z,10.80
2018-11-28T06:25:16.178Z,10.60
2018-11-28T06:27:42.524Z,11.50
2018-11-28T06:30:16.954Z,11.47
2018-11-28T06:32:51.007Z,11.53
2018-11-28T06:35:14.192Z,12.07
2018-11-28T06:37:42.697Z,13.13
2018-11-28T06:40:15.058Z,12.60
2018-11-28T06:42:44.216Z,12.57
2018-11-28T06:45:15.781Z,13.57
2018-11-28T06:47:44.134Z,12.83
2018-11-28T06:50:14.452Z,14.90
2018-11-28T06:52:43.670Z,14.40
2018-11-28T06:55:13.242Z,14.03
2018-11-28T06:57:41.634Z,15.07
2018-11-28T07:00:18.121Z,13.77
2018-11-28T07:02:47.141Z,13.33
2018-11-28T07:05:15.576Z,13.50
2018-11-28T07:07:44.005Z,11.37
2018-11-28T07:10:13.697Z,14.53
2018-11-28T07:12:42.902Z,12.77
2018-11-28T07:15:13.302Z,12.30
2018-11-28T07:17:42.048Z,12.47
2018-11-28T07:20:14.353Z,13.50
2018-11-28T07:22:42.816Z,13.40
2018-11-28T07:25:14.056Z,13.67
2018-11-28T07:27:45.024Z,12.67
2018-11-28T07:30:17.261Z,12.70
2018-11-28T07:32:45.849Z,14.37
2018-11-28T07:35:15.337Z,13.57
2018-11-28T07:37:44.174Z,14.37
2018-11-28T07:40:18.408Z,13.30
2018-11-28T07:43:02.409Z,12.90
2018-11-28T07:45:32.799Z,10.03
2018-11-28T07:48:01.270Z,13.83
2018-11-28T07:50:29.574Z,13.03
2018-11-28T07:52:58.401Z,13.67
2018-11-28T07:55:27.314Z,15.10
2018-11-28T07:57:56.257Z,13.73
2018-11-28T08:00:24.870Z,15.03
2018-11-28T08:02:53.371Z,13.93
2018-11-28T08:05:22.061Z,13.33
2018-11-28T08:07:50.401Z,13.60
2018-11-28T08:10:21.880Z,13.57
2018-11-28T08:12:51.435Z,12.90
2018-11-28T08:15:19.837Z,12.73
2018-11-28T08:17:48.453Z,12.73
2018-11-28T08:20:17.362Z,12.37
2018-11-28T08:22:45.800Z,12.03
2018-11-28T08:25:17.356Z,11.93
2018-11-28T08:27:47.329Z,12.63
2018-11-28T08:30:20.101Z,13.30
2018-11-28T08:32:48.583Z,12.40
2018-11-28T08:35:17.356Z,12.53
2018-11-28T08:37:45.868Z,12.77
2018-11-28T08:40:19.811Z,12.70
2018-11-28T08:42:48.414Z,13.60
2018-11-28T08:45:18.464Z,13.53
2018-11-28T08:47:48.573Z,12.73
2018-11-28T08:50:18.523Z,12.70
2018-11-28T08:52:50.391Z,12.47
2018-11-28T08:55:19.068Z,13.33
2018-11-28T08:57:48.616Z,13.00
2018-11-28T09:00:21.088Z,11.80
2018-11-28T09:02:56.541Z,13.80
2018-11-28T09:05:25.181Z,13.70
2018-11-28T09:07:53.700Z,14.40
2018-11-28T09:10:22.311Z,13.57
2018-11-28T09:12:51.210Z,12.17
2018-11-28T09:15:26.918Z,13.73
2018-11-28T09:17:55.760Z,13.83
2018-11-28T09:20:25.133Z,13.83
2018-11-28T09:22:56.173Z,15.70
2018-11-28T09:28:08.939Z,14.17
2018-11-28T09:30:37.563Z,14.27
2018-11-28T09:33:06.488Z,13.77
2018-11-28T09:35:34.871Z,15.63
2018-11-28T09:38:10.297Z,15.17
2018-11-28T09:40:38.654Z,15.03
2018-11-28T09:43:07.162Z,14.33
2018-11-28T09:45:36.776Z,14.43
2018-11-28T09:48:05.360Z,16.83
2018-11-28T09:50:35.754Z,15.40
2018-11-28T09:53:04.201Z,16.37
2018-11-28T09:55:33.889Z,15.90
2018-11-28T09:58:03.055Z,13.70
2018-11-28T10:00:32.774Z,14.97
2018-11-28T10:03:02.169Z,16.23
2018-11-28T10:05:35.036Z,14.90
2018-11-28T10:08:03.916Z,14.37
2018-11-28T10:10:32.883Z,14.90
2018-11-28T10:13:01.300Z,14.37
2018-11-28T10:15:35.278Z,14.10
2018-11-28T10:18:00.994Z,16.40
2018-11-28T10:20:29.501Z,15.30
2018-11-28T10:22:58.832Z,15.17
2018-11-28T10:25:27.470Z,15.10
2018-11-28T10:28:05.400Z,14.37
2018-11-28T10:30:36.281Z,16.00
2018-11-28T10:33:15.193Z,14.90
2018-11-28T10:35:43.865Z,15.03
2018-11-28T10:38:13.890Z,13.87
2018-11-28T10:40:42.855Z,13.50
2018-11-28T10:43:11.698Z,14.73
2018-11-28T10:45:40.931Z,14.70
2018-11-28T10:48:15.397Z,16.00
2018-11-28T10:50:45.342Z,16.57
2018-11-28T10:53:15.641Z,15.70
2018-11-28T10:55:45.438Z,16.43
2018-11-28T10:58:14.495Z,14.83
2018-11-28T11:00:48.714Z,14.47
2018-11-28T11:03:23.341Z,15.90
2018-11-28T11:05:58.313Z,15.00
2018-11-28T11:08:28.716Z,14.97
2018-11-28T11:11:03.853Z,16.77
2018-11-28T11:13:38.114Z,14.93
2018-11-28T11:16:07.969Z,15.40
2018-11-28T11:18:38.919Z,15.77
2018-11-28T11:21:08.126Z,16.33
2018-11-28T11:23:37.579Z,15.33
2018-11-28T11:26:06.499Z,13.90
2018-11-28T11:28:39.432Z,15.03
2018-11-28T11:31:09.045Z,15.90
2018-11-28T11:33:38.377Z,14.10
2018-11-28T11:36:09.123Z,15.07
2018-11-28T11:38:38.680Z,14.83
2018-11-28T11:41:07.402Z,14.30
2018-11-28T11:43:36.239Z,15.67
2018-11-28T11:46:05.720Z,18.17
2018-11-28T11:54:28.066Z,14.90
2018-11-28T11:56:58.898Z,15.67
2018-11-28T11:59:27.894Z,15.00
2018-11-28T12:01:57.072Z,15.70
2018-11-28T12:04:25.408Z,16.50
2018-11-28T12:06:54.963Z,15.23
2018-11-28T12:09:24.149Z,15.90
2018-11-28T12:11:53.542Z,16.33
2018-11-28T12:14:22.013Z,15.87
2018-11-28T12:16:50.539Z,17.37
2018-11-28T12:19:20.188Z,16.40
2018-11-28T12:21:48.590Z,16.17
2018-11-28T12:24:17.171Z,17.13
2018-11-28T12:26:45.818Z,18.03
2018-11-28T12:29:15.402Z,18.43
2018-11-28T12:31:45.856Z,17.80
2018-11-28T12:34:14.857Z,17.40
2018-11-28T12:36:44.319Z,16.63
2018-11-28T12:39:14.140Z,17.83
2018-11-28T12:41:43.087Z,17.73
2018-11-28T12:44:12.621Z,17.40
2018-11-28T12:46:41.818Z,17.00
2018-11-28T12:49:11.134Z,17.83
2018-11-28T12:51:40.399Z,16.90
2018-11-28T12:54:09.512Z,15.63
2018-11-28T12:56:38.860Z,17.07
2018-11-28T12:59:07.983Z,17.57
2018-11-28T13:01:37.157Z,16.67
2018-11-28T13:04:06.975Z,16.57
2018-11-28T13:09:17.966Z,15.10
2018-11-28T13:11:46.293Z,14.47
2018-11-28T13:14:14.857Z,16.80
2018-11-28T13:16:44.687Z,14.93
2018-11-28T13:19:13.895Z,15.80
2018-11-28T13:21:43.094Z,15.67
2018-11-28T13:24:12.394Z,16.43
2018-11-28T13:26:41.433Z,17.73
2018-11-28T13:29:12.053Z,16.10
2018-11-28T13:31:43.417Z,17.57
2018-11-28T13:34:12.739Z,16.00
2018-11-28T13:36:41.942Z,16.03
2018-11-28T13:39:11.290Z,16.73
2018-11-28T13:41:39.650Z,16.10
2018-11-28T13:44:08.007Z,14.53
2018-11-28T13:46:36.365Z,19.27
2018-11-28T13:49:04.987Z,16.67
2018-11-28T13:51:33.570Z,17.43
2018-11-28T13:54:20.547Z,15.77
2018-11-28T13:56:58.289Z,16.17
2018-11-28T13:58:59.889Z,17.07
2018-11-28T14:01:28.422Z,14.93
2018-11-28T14:03:56.754Z,17.53
2018-11-28T14:06:25.195Z,17.30
2018-11-28T14:08:55.309Z,17.97
2018-11-28T14:11:23.644Z,14.60
2018-11-28T14:13:52.113Z,17.57
2018-11-28T14:16:21.395Z,18.30
2018-11-28T14:18:49.889Z,19.10
2018-11-28T14:21:18.464Z,17.97
2018-11-28T14:23:46.935Z,17.93
2018-11-28T14:26:15.388Z,16.30
2018-11-28T14:28:43.958Z,16.70
2018-11-28T14:31:12.425Z,17.03
2018-11-28T14:33:41.047Z,17.70
2018-11-28T14:36:09.427Z,15.60
2018-11-28T14:38:38.309Z,15.70
2018-11-28T14:41:06.947Z,16.00
2018-11-28T14:43:36.446Z,16.90
2018-11-28T14:46:04.945Z,17.47
2018-11-28T14:48:33.321Z,18.20
2018-11-28T14:51:01.819Z,17.73
2018-11-28T14:53:30.363Z,16.80
2018-11-28T14:55:59.022Z,17.30
2018-11-28T14:58:27.660Z,17.10
2018-11-28T15:00:55.881Z,17.47
2018-11-28T15:03:24.689Z,16.03
2018-11-28T15:06:02.836Z,15.53
2018-11-28T15:08:31.880Z,16.50
2018-11-28T15:11:09.000Z,15.57
2018-11-28T15:13:37.817Z,16.10
2018-11-28T15:16:06.715Z,16.47
2018-11-28T15:18:35.185Z,15.00
2018-11-28T15:21:03.596Z,15.50
2018-11-28T15:23:32.090Z,17.10
2018-11-28T15:26:00.780Z,16.57
2018-11-28T15:28:29.156Z,15.93
2018-11-28T15:30:57.688Z,14.67
2018-11-28T15:33:26.027Z,17.33
2018-11-28T15:35:54.397Z,15.63
2018-11-28T15:38:23.157Z,15.33
2018-11-28T15:40:52.594Z,14.67
2018-11-28T15:43:21.126Z,15.60
2018-11-28T15:45:50.387Z,15.77
2018-11-28T15:48:18.845Z,15.23
2018-11-28T15:50:47.312Z,14.10
2018-11-28T15:53:15.673Z,14.90
2018-11-28T15:55:44.216Z,15.53
2018-11-28T15:58:12.599Z,16.23
2018-11-28T16:00:40.921Z,14.03
2018-11-28T16:03:09.337Z,17.20
2018-11-28T16:05:39.626Z,17.97
2018-11-28T16:08:07.989Z,15.50
2018-11-28T16:10:43.346Z,16.07
2018-11-28T16:13:15.040Z,15.57
2018-11-28T16:15:54.402Z,14.50
2018-11-28T16:18:23.160Z,15.27
2018-11-28T16:20:51.656Z,16.30
2018-11-28T16:23:19.985Z,14.03
2018-11-28T16:25:48.326Z,13.30
2018-11-28T16:28:16.834Z,16.00
2018-11-28T16:30:45.293Z,14.87
2018-11-28T16:33:13.658Z,15.57
2018-11-28T16:35:42.048Z,15.30
2018-11-28T16:38:10.366Z,13.53
2018-11-28T16:40:38.612Z,13.40
2018-11-28T16:43:06.853Z,15.10
2018-11-28T16:45:35.284Z,14.37
2018-11-28T16:48:03.750Z,15.43
2018-11-28T16:50:32.253Z,15.43
2018-11-28T16:53:00.643Z,15.13
2018-11-28T16:55:29.314Z,17.80
2018-11-28T16:57:58.000Z,15.23
2018-11-28T17:00:28.910Z,17.10
2018-11-28T17:02:57.633Z,15.00
2018-11-28T17:05:27.357Z,16.27
2018-11-28T17:07:55.937Z,17.30
2018-11-28T17:10:26.325Z,16.47
2018-11-28T17:12:55.239Z,15.83
2018-11-28T17:15:23.621Z,15.93
2018-11-28T17:17:52.031Z,15.63
2018-11-28T17:20:21.375Z,15.73
2018-11-28T17:22:50.753Z,14.80
2018-11-28T17:25:21.454Z,14.47
2018-11-28T17:27:49.759Z,15.67
2018-11-28T17:30:22.436Z,15.80
2018-11-28T17:32:50.918Z,16.67
2018-11-28T17:35:19.750Z,16.23
2018-11-28T17:37:48.679Z,15.20
2018-11-28T17:40:20.346Z,15.10
2018-11-28T17:42:50.937Z,16.73
2018-11-28T17:45:19.520Z,15.53
2018-11-28T17:47:48.458Z,14.57
2018-11-28T17:50:19.849Z,14.93
2018-11-28T17:52:51.164Z,17.10
2018-11-28T17:55:19.570Z,17.77
2018-11-28T18:00:22.817Z,15.83
2018-11-28T18:02:51.303Z,16.73
2018-11-28T18:05:19.671Z,16.33
2018-11-28T18:07:48.126Z,14.40
2018-11-28T18:10:17.680Z,16.30
2018-11-28T18:12:57.321Z,16.23
2018-11-28T18:15:25.642Z,17.80
2018-11-28T18:17:55.634Z,17.30
2018-11-28T18:20:23.954Z,16.17
2018-11-28T18:22:52.424Z,16.93
2018-11-28T18:25:21.187Z,15.33
2018-11-28T18:27:49.967Z,17.00
2018-11-28T18:30:17.993Z,16.40
2018-11-28T18:32:46.452Z,13.90
2018-11-28T18:35:14.733Z,16.93
2018-11-28T18:37:43.044Z,17.60
2018-11-28T18:40:12.794Z,17.23
2018-11-28T18:42:42.685Z,17.23
2018-11-28T18:45:18.472Z,16.20
2018-11-28T18:47:46.508Z,17.20
2018-11-28T18:50:15.050Z,17.20
2018-11-28T18:52:43.426Z,17.57
2018-11-28T18:55:16.723Z,17.17
2018-11-28T18:57:43.317Z,16.87
2018-11-28T19:00:17.854Z,18.67
2018-11-28T19:02:46.117Z,17.43
2018-11-28T19:05:14.601Z,16.47
2018-11-28T19:07:43.016Z,17.77
2018-11-28T19:10:13.535Z,17.00
2018-11-28T19:12:41.875Z,15.73
2018-11-28T19:15:13.433Z,16.33
2018-11-28T19:17:42.023Z,18.43
2018-11-28T19:20:11.713Z,16.37
2018-11-28T19:22:40.147Z,19.00
2018-11-28T19:25:14.429Z,16.77
2018-11-28T19:27:42.956Z,17.90
2018-11-28T19:30:12.570Z,16.93
2018-11-28T19:32:41.454Z,16.57
2018-11-28T19:35:10.760Z,17.47
2018-11-28T19:37:40.181Z,16.47
2018-11-28T19:40:11.339Z,16.83
2018-11-28T19:42:40.359Z,17.00
2018-11-28T19:45:10.027Z,16.93
2018-11-28T19:47:38.506Z,17.37
2018-11-28T19:50:18.347Z,16.83
2018-11-28T19:52:47.062Z,18.40
2018-11-28T19:55:16.009Z,16.97
2018-11-28T19:57:45.122Z,17.17
2018-11-28T20:00:15.562Z,19.53
2018-11-28T20:02:44.588Z,18.20
2018-11-28T20:05:13.466Z,18.70
2018-11-28T20:07:45.536Z,17.73
2018-11-28T20:10:16.288Z,17.83
2018-11-28T20:12:44.757Z,16.43
2018-11-28T20:15:18.989Z,17.83
2018-11-28T20:17:47.465Z,18.47
2018-11-28T20:20:16.799Z,19.67
2018-11-28T20:22:45.387Z,17.20
2018-11-28T20:25:16.397Z,18.37
2018-11-28T20:27:46.071Z,16.47
2018-11-28T20:30:16.146Z,19.03
2018-11-28T20:32:44.617Z,17.00
2018-11-28T20:35:13.103Z,17.83
2018-11-28T20:37:41.832Z,17.97
2018-11-28T20:40:12.799Z,18.30
2018-11-28T20:42:42.958Z,17.23
2018-11-28T20:45:12.755Z,16.17
2018-11-28T20:47:41.155Z,18.40
2018-11-28T20:50:13.274Z,17.57
2018-11-28T20:52:42.903Z,17.87
2018-11-28T20:55:11.384Z,17.40
2018-11-28T20:57:39.734Z,16.50
2018-11-28T21:00:14.056Z,17.50
2018-11-28T21:02:42.526Z,17.07
2018-11-28T21:05:11.013Z,15.77
2018-11-28T21:07:39.987Z,16.77
2018-11-28T21:10:17.308Z,16.80
2018-11-28T21:12:45.694Z,16.87
2018-11-28T21:15:15.034Z,18.37
2018-11-28T21:17:45.378Z,16.43
2018-11-28T21:20:15.853Z,16.47
2018-11-28T21:22:45.661Z,19.20
2018-11-28T21:25:13.974Z,17.47
2018-11-28T21:27:42.930Z,14.30
2018-11-28T21:30:14.685Z,16.20
2018-11-28T21:32:43.751Z,14.97
2018-11-28T21:35:14.502Z,18.80
2018-11-28T21:37:42.873Z,15.53
2018-11-28T21:40:11.599Z,17.90
2018-11-28T21:42:39.901Z,16.40
2018-11-28T21:45:12.836Z,17.50
2018-11-28T21:47:41.705Z,16.23
2018-11-28T21:50:13.993Z,16.17
2018-11-28T21:52:42.950Z,17.70
2018-11-28T21:55:12.439Z,17.37
2018-11-28T21:57:40.938Z,17.50
2018-11-28T22:00:16.687Z,17.53
2018-11-28T22:02:44.933Z,17.30
2018-11-28T22:05:14.213Z,17.90
2018-11-28T22:07:42.624Z,16.77
2018-11-28T22:10:14.865Z,17.33
2018-11-28T22:12:43.191Z,16.07
2018-11-28T22:15:14.311Z,17.27
2018-11-28T22:17:43.887Z,18.03
2018-11-28T22:20:13.612Z,16.13
2018-11-28T22:22:41.982Z,19.03
2018-11-28T22:25:19.112Z,17.90
2018-11-28T22:27:47.581Z,17.10
2018-11-28T22:30:20.131Z,17.33
2018-11-28T22:32:48.549Z,17.57
2018-11-28T22:35:17.457Z,14.83
2018-11-28T22:37:45.834Z,17.33
2018-11-28T22:40:31.041Z,18.33
2018-11-28T22:42:59.354Z,15.13
2018-11-28T22:45:32.577Z,17.07
2018-11-28T22:48:02.716Z,17.37
2018-11-28T22:50:31.987Z,19.37
2018-11-28T22:53:00.492Z,19.77
2018-11-28T22:55:29.275Z,15.00
2018-11-28T22:57:57.637Z,16.90
2018-11-28T23:00:31.697Z,18.20
2018-11-28T23:03:02.470Z,18.60
2018-11-28T23:05:35.012Z,16.40
2018-11-28T23:08:04.537Z,17.63
2018-11-28T23:10:32.868Z,18.23
2018-11-28T23:13:01.156Z,15.93
2018-11-28T23:15:30.073Z,17.87
2018-11-28T23:17:59.149Z,18.97
2018-11-28T23:20:27.435Z,15.93
2018-11-28T23:22:55.918Z,17.10
2018-11-28T23:25:24.419Z,16.20
2018-11-28T23:27:53.240Z,16.93
2018-11-28T23:30:22.300Z,15.53
2018-11-28T23:32:52.430Z,17.07
2018-11-28T23:35:20.773Z,15.57
2018-11-28T23:37:49.530Z,13.57
2018-11-28T23:40:23.734Z,16.47
2018-11-28T23:42:52.604Z,17.00
2018-11-28T23:45:21.188Z,18.73
2018-11-28T23:47:49.728Z,18.53
2018-11-28T23:50:18.688Z,17.00
2018-11-28T23:52:47.788Z,17.80
2018-11-28T23:55:18.108Z,18.30
2018-11-28T23:57:46.514Z,17.53
